Strona główna
METAR-TAF:

METAR-TAF

Lotnisko :

Port lotniczy Korfu

Korfu, Grecja

Szerokość geograficzna: 39-37N, Długość geograficzna: 019-55E, wysokość: 2 m

Aktualna obserwacja pogody

Raport powstał 27 minut temu, godzina 00:50 UTC
Cisza
Temperatura 6°C
Wilgotność 93%
Ciśnienie 1036 hPa
Widzialność 10 km lub więcej
Mało chmury na wysokości 2000 ft

METAR: LGKR 210050Z 00000KT 9999 FEW020 06/05 Q1036 NOSIG

czas: 03:17 (01:17 UTC)

Prognoza

Raport powstał 2 godziny i 17 minut temu, godzina 23:00 UTC
Prognoza ważna od 21 godzina 00 UTC do 21 godzina 24 UTC
Wiatr 5 kt z kierunków zmiennych
Widzialność 10 km lub więcej
Mało chmury na wysokości 2000 ft

TAF: LGKR 202300Z 2100/2124 VRB05KT 9999 FEW020

Obserwacja i prognoza pogody dla ponad 4000 lotnisk (raport METAR i TAF).

Dostępne stacje oznaczono żółtymi i czerwonymi punktami na mapie.

Najedź kursorem aby zobaczyć nazwę stacji.

Kliknij aby zobaczyć obserwacje i prognozy pogody.

Aby zmienić mapę: kliknij na zielony przycisk z czarnym krzyżykiem, aby powiększyć; na zielony przycisk z myślnikiem, aby pomniejszyć; na zielone strzałki, aby przejść do map sąsiednich.


METAR-TAF: